createdAt,value
2017-09-05T00:02:07.755Z,5.77
2017-09-05T00:04:36.075Z,6.20
2017-09-05T00:07:04.398Z,6.70
2017-09-05T00:09:38.240Z,6.50
2017-09-05T00:12:21.819Z,6.83
2017-09-05T00:14:55.860Z,6.70
2017-09-05T00:17:25.015Z,7.20
2017-09-05T00:19:54.861Z,7.07
2017-09-05T00:22:28.201Z,7.00
2017-09-05T00:24:56.783Z,7.30
2017-09-05T00:27:25.072Z,7.60
2017-09-05T00:29:53.402Z,7.67
2017-09-05T00:32:21.792Z,8.07
2017-09-05T00:34:50.442Z,7.23
2017-09-05T00:37:18.918Z,7.00
2017-09-05T00:39:47.198Z,7.13
2017-09-05T00:42:16.623Z,7.03
2017-09-05T00:44:48.425Z,7.80
2017-09-05T00:47:17.301Z,6.60
2017-09-05T00:49:45.561Z,8.93
2017-09-05T00:52:13.870Z,8.10
2017-09-05T00:54:44.032Z,8.10
2017-09-05T00:57:12.287Z,7.97
2017-09-05T00:59:41.014Z,7.67
2017-09-05T01:02:09.456Z,7.93
2017-09-05T01:04:39.222Z,9.00
2017-09-05T01:07:07.604Z,9.07
2017-09-05T01:09:35.906Z,8.60
2017-09-05T01:12:04.482Z,9.00
2017-09-05T01:14:33.544Z,8.87
2017-09-05T01:17:01.847Z,8.63
2017-09-05T01:19:30.148Z,8.97
2017-09-05T01:21:59.981Z,7.90
2017-09-05T01:24:28.662Z,9.03
2017-09-05T01:26:57.543Z,8.50
2017-09-05T01:29:25.860Z,7.73
2017-09-05T01:31:55.581Z,9.43
2017-09-05T01:34:23.932Z,8.63
2017-09-05T01:36:53.188Z,8.63
2017-09-05T01:39:21.793Z,9.90
2017-09-05T01:41:50.100Z,8.17
2017-09-05T01:44:18.433Z,8.90
2017-09-05T01:46:46.829Z,9.87
2017-09-05T01:49:15.660Z,9.17
2017-09-05T01:51:44.466Z,9.30
2017-09-05T01:54:13.891Z,8.40
2017-09-05T01:56:42.555Z,7.90
2017-09-05T01:59:10.962Z,10.00
2017-09-05T02:01:39.838Z,10.23
2017-09-05T02:04:08.198Z,9.80
2017-09-05T02:06:37.420Z,9.27
2017-09-05T02:09:06.079Z,9.70
2017-09-05T02:11:34.351Z,10.70
2017-09-05T02:14:04.450Z,9.90
2017-09-05T02:16:32.751Z,11.00
2017-09-05T02:19:01.016Z,9.80
2017-09-05T02:21:30.356Z,10.80
2017-09-05T02:23:58.694Z,9.97
2017-09-05T02:26:27.308Z,9.90
2017-09-05T02:28:55.613Z,10.87
2017-09-05T02:31:23.925Z,10.70
2017-09-05T02:33:53.027Z,11.40
2017-09-05T02:36:22.139Z,10.20
2017-09-05T02:38:51.235Z,12.23
2017-09-05T02:41:19.554Z,11.63
2017-09-05T02:43:47.901Z,10.50
2017-09-05T02:46:17.390Z,12.90
2017-09-05T02:48:45.683Z,11.33
2017-09-05T02:51:14.265Z,11.00
2017-09-05T02:53:42.597Z,11.87
2017-09-05T02:56:11.786Z,10.87
2017-09-05T02:58:40.429Z,11.27
2017-09-05T03:01:08.740Z,11.63
2017-09-05T03:03:37.352Z,11.87
2017-09-05T03:06:06.052Z,12.23
2017-09-05T03:08:34.500Z,13.17
2017-09-05T03:11:03.695Z,12.43
2017-09-05T03:13:32.404Z,12.77
2017-09-05T03:16:01.160Z,12.37
2017-09-05T03:18:29.891Z,12.50
2017-09-05T03:20:58.245Z,11.93
2017-09-05T03:23:26.909Z,12.97
2017-09-05T03:25:55.565Z,12.70
2017-09-05T03:28:24.703Z,13.37
2017-09-05T03:30:53.810Z,12.53
2017-09-05T03:33:22.124Z,13.53
2017-09-05T03:35:50.810Z,12.60
2017-09-05T03:38:20.182Z,12.97
2017-09-05T03:40:48.898Z,12.07
2017-09-05T03:43:17.876Z,13.70
2017-09-05T03:45:46.300Z,14.20
2017-09-05T03:48:15.391Z,13.57
2017-09-05T03:50:44.366Z,13.47
2017-09-05T03:53:12.666Z,14.23
2017-09-05T03:55:41.853Z,13.80
2017-09-05T03:58:11.341Z,14.03
2017-09-05T04:00:40.454Z,14.13
2017-09-05T04:03:08.731Z,13.93
2017-09-05T04:05:37.096Z,15.23
2017-09-05T04:08:05.680Z,13.33
2017-09-05T04:10:34.322Z,14.20
2017-09-05T04:13:02.802Z,12.97
2017-09-05T04:15:31.219Z,15.13
2017-09-05T04:17:59.763Z,12.60
2017-09-05T04:20:29.153Z,17.07
2017-09-05T04:22:57.848Z,15.77
2017-09-05T04:25:27.479Z,15.03
2017-09-05T04:27:55.849Z,16.67
2017-09-05T04:30:24.476Z,17.33
2017-09-05T04:32:52.752Z,15.70
2017-09-05T04:35:21.281Z,16.57
2017-09-05T04:37:49.734Z,14.27
2017-09-05T04:40:18.028Z,17.37
2017-09-05T04:42:47.540Z,15.90
2017-09-05T04:45:16.892Z,16.40
2017-09-05T04:47:45.287Z,15.83
2017-09-05T04:50:13.659Z,16.27
2017-09-05T04:52:42.002Z,15.00
2017-09-05T04:55:10.673Z,16.33
2017-09-05T04:57:39.076Z,17.00
2017-09-05T05:00:07.516Z,15.90
2017-09-05T05:02:36.519Z,15.17
2017-09-05T05:05:04.857Z,15.83
2017-09-05T05:07:33.186Z,15.10
2017-09-05T05:10:01.562Z,16.20
2017-09-05T05:12:29.862Z,17.70
2017-09-05T05:14:58.800Z,16.23
2017-09-05T05:17:27.587Z,15.60
2017-09-05T05:19:56.055Z,16.57
2017-09-05T05:22:24.725Z,16.23
2017-09-05T05:24:53.051Z,16.20
2017-09-05T05:27:21.823Z,15.47
2017-09-05T05:29:50.140Z,15.97
2017-09-05T05:32:18.790Z,15.53
2017-09-05T05:34:47.424Z,15.83
2017-09-05T05:37:16.030Z,14.50
2017-09-05T05:39:44.908Z,15.90
2017-09-05T05:42:13.337Z,16.30
2017-09-05T05:44:42.714Z,14.07
2017-09-05T05:47:11.392Z,14.50
2017-09-05T05:49:39.692Z,12.90
2017-09-05T05:52:08.273Z,13.90
2017-09-05T05:54:36.586Z,13.17
2017-09-05T05:57:04.887Z,13.63
2017-09-05T05:59:33.538Z,13.87
2017-09-05T06:02:03.498Z,13.63
2017-09-05T06:04:31.779Z,12.80
2017-09-05T06:07:00.926Z,13.80
2017-09-05T06:09:29.212Z,12.00
2017-09-05T06:11:58.523Z,11.80
2017-09-05T06:14:26.861Z,10.60
2017-09-05T06:16:55.184Z,11.03
2017-09-05T06:19:24.196Z,10.90
2017-09-05T06:21:52.741Z,10.30
2017-09-05T06:24:21.409Z,8.67
2017-09-05T06:26:49.709Z,8.87
2017-09-05T06:29:19.622Z,9.13
2017-09-05T06:31:48.808Z,9.50
2017-09-05T06:34:17.141Z,8.77
2017-09-05T06:36:45.784Z,9.37
2017-09-05T06:39:15.495Z,9.10
2017-09-05T06:41:43.816Z,7.80
2017-09-05T06:44:12.626Z,7.80
2017-09-05T06:46:41.247Z,8.87
2017-09-05T06:49:09.623Z,8.00
2017-09-05T06:51:38.515Z,7.87
2017-09-05T06:54:08.547Z,6.80
2017-09-05T06:56:37.133Z,8.23
2017-09-05T06:59:05.463Z,6.67
2017-09-05T07:01:34.733Z,6.73
2017-09-05T07:04:03.029Z,5.97
2017-09-05T07:06:31.377Z,5.63
2017-09-05T07:09:00.043Z,6.10
2017-09-05T07:11:28.964Z,5.63
2017-09-05T07:13:57.874Z,5.53
2017-09-05T07:16:27.111Z,5.30
2017-09-05T07:18:55.425Z,4.60
2017-09-05T07:21:24.798Z,4.80
2017-09-05T07:23:53.874Z,5.17
2017-09-05T07:26:22.187Z,5.00
2017-09-05T07:28:50.528Z,4.07
2017-09-05T07:31:18.860Z,4.00
2017-09-05T07:33:47.473Z,3.80
2017-09-05T07:36:17.075Z,5.00
2017-09-05T07:38:45.365Z,3.50
2017-09-05T07:41:13.946Z,2.90
2017-09-05T07:43:42.229Z,3.23
2017-09-05T07:46:10.932Z,3.00
2017-09-05T07:48:39.560Z,3.50
2017-09-05T07:51:08.660Z,2.73
2017-09-05T07:53:36.919Z,3.40
2017-09-05T07:56:05.202Z,3.70
2017-09-05T07:58:34.089Z,2.73
2017-09-05T08:01:02.822Z,2.97
2017-09-05T08:03:31.104Z,3.20
2017-09-05T08:05:59.430Z,3.00
2017-09-05T08:08:28.462Z,3.43
2017-09-05T08:10:57.066Z,2.63
2017-09-05T08:13:25.733Z,3.23
2017-09-05T08:15:54.056Z,3.30
2017-09-05T08:18:23.220Z,3.03
2017-09-05T08:20:52.191Z,4.00
2017-09-05T08:23:20.856Z,4.17
2017-09-05T08:25:49.168Z,3.77
2017-09-05T08:28:17.836Z,3.87
2017-09-05T08:30:46.139Z,3.67
2017-09-05T08:33:14.439Z,4.70
2017-09-05T08:35:43.098Z,3.80
2017-09-05T08:38:11.383Z,3.67
2017-09-05T08:40:39.708Z,4.43
2017-09-05T08:43:07.980Z,4.47
2017-09-05T08:45:36.350Z,4.17
2017-09-05T08:48:05.068Z,4.60
2017-09-05T08:50:34.235Z,4.63
2017-09-05T08:53:03.263Z,4.30
2017-09-05T08:55:31.555Z,4.83
2017-09-05T08:57:59.859Z,5.37
2017-09-05T09:00:28.881Z,3.63
2017-09-05T09:02:57.202Z,4.30
2017-09-05T09:05:25.490Z,4.43
2017-09-05T09:07:53.820Z,5.30
2017-09-05T09:10:22.101Z,4.70
2017-09-05T09:12:51.741Z,5.50
2017-09-05T09:15:20.807Z,6.70
2017-09-05T09:17:49.578Z,5.00
2017-09-05T09:20:18.521Z,3.73
2017-09-05T09:22:47.308Z,5.40
2017-09-05T09:25:15.996Z,4.70
2017-09-05T09:27:44.288Z,5.37
2017-09-05T09:30:12.567Z,4.67
2017-09-05T09:32:41.715Z,5.30
2017-09-05T09:35:10.443Z,5.80
2017-09-05T09:37:39.118Z,4.77
2017-09-05T09:40:07.542Z,5.70
2017-09-05T09:42:37.230Z,6.03
2017-09-05T09:45:05.545Z,5.60
2017-09-05T09:47:33.814Z,4.70
2017-09-05T09:50:02.372Z,5.70
2017-09-05T09:52:30.665Z,5.23
2017-09-05T09:54:58.996Z,6.83
2017-09-05T09:57:27.333Z,5.60
2017-09-05T09:59:55.616Z,6.53
2017-09-05T10:02:25.410Z,6.23
2017-09-05T10:04:53.700Z,5.87
2017-09-05T10:07:22.057Z,5.77
2017-09-05T10:09:50.364Z,6.47
2017-09-05T10:12:18.780Z,6.23
2017-09-05T10:14:48.028Z,7.20
2017-09-05T10:17:16.367Z,7.90
2017-09-05T10:19:44.669Z,5.90
2017-09-05T10:22:13.717Z,6.10
2017-09-05T10:24:42.245Z,7.80
2017-09-05T10:27:10.894Z,9.20
2017-09-05T10:29:39.600Z,7.83
2017-09-05T10:32:07.894Z,9.27
2017-09-05T10:34:36.563Z,9.20
2017-09-05T10:37:04.909Z,8.33
2017-09-05T10:39:33.189Z,9.43
2017-09-05T10:42:01.482Z,9.20
2017-09-05T10:44:29.803Z,10.27
2017-09-05T10:46:59.927Z,8.83
2017-09-05T10:49:29.468Z,10.03
2017-09-05T10:51:57.801Z,9.70
2017-09-05T10:54:27.279Z,7.43
2017-09-05T10:56:56.718Z,9.90
2017-09-05T10:59:25.485Z,7.90
2017-09-05T11:01:53.790Z,9.83
2017-09-05T11:04:23.412Z,8.73
2017-09-05T11:06:52.965Z,8.50
2017-09-05T11:09:22.449Z,9.40
2017-09-05T11:11:52.682Z,7.47
2017-09-05T11:14:20.999Z,8.17
2017-09-05T11:16:49.311Z,7.40
2017-09-05T11:19:18.509Z,7.57
2017-09-05T11:21:46.772Z,6.50
2017-09-05T11:24:15.392Z,7.43
2017-09-05T11:33:33.931Z,6.57
2017-09-05T11:36:02.329Z,5.90
2017-09-05T11:38:30.904Z,6.63
2017-09-05T11:40:59.201Z,5.77
2017-09-05T11:43:28.959Z,5.33
2017-09-05T11:45:57.882Z,5.70
2017-09-05T11:48:27.499Z,6.67
2017-09-05T11:50:57.324Z,5.17
2017-09-05T11:53:25.497Z,6.43
2017-09-05T11:55:55.140Z,5.30
2017-09-05T11:58:23.341Z,4.50
2017-09-05T12:00:51.661Z,4.67
2017-09-05T12:03:20.496Z,4.30
2017-09-05T12:05:48.792Z,5.00
2017-09-05T12:08:17.069Z,3.93
2017-09-05T12:10:45.394Z,4.10
2017-09-05T12:13:13.692Z,4.00
2017-09-05T12:15:43.607Z,3.70
2017-09-05T12:18:11.779Z,4.30
2017-09-05T12:20:41.412Z,4.10
2017-09-05T12:23:09.957Z,4.43
2017-09-05T12:25:38.284Z,4.27
2017-09-05T12:28:06.938Z,3.90
2017-09-05T12:30:36.994Z,4.03
2017-09-05T12:33:05.609Z,4.20
2017-09-05T12:35:35.302Z,3.70
2017-09-05T12:38:03.449Z,3.37
2017-09-05T12:40:32.059Z,3.80
2017-09-05T12:43:01.751Z,3.70
2017-09-05T12:45:29.910Z,3.00
2017-09-05T12:47:59.457Z,4.47
2017-09-05T12:50:27.755Z,3.97
2017-09-05T12:52:56.134Z,3.73
2017-09-05T12:55:24.517Z,3.33
2017-09-05T12:57:53.409Z,3.83
2017-09-05T13:00:21.992Z,3.30
2017-09-05T13:02:50.317Z,2.97
2017-09-05T13:05:18.651Z,3.43
2017-09-05T13:07:47.030Z,3.10
2017-09-05T13:10:15.324Z,3.37
2017-09-05T13:12:44.400Z,3.30
2017-09-05T13:15:13.062Z,3.10
2017-09-05T13:17:41.376Z,3.10
2017-09-05T13:20:09.669Z,3.03
2017-09-05T13:22:38.675Z,3.03
2017-09-05T13:25:08.729Z,3.53
2017-09-05T13:27:37.060Z,2.73
2017-09-05T13:30:05.815Z,4.03
2017-09-05T13:32:34.158Z,2.63
2017-09-05T13:35:03.673Z,3.37
2017-09-05T13:37:33.078Z,2.43
2017-09-05T13:40:02.175Z,3.77
2017-09-05T13:42:30.501Z,3.10
2017-09-05T13:45:00.239Z,2.80
2017-09-05T13:47:28.975Z,2.97
2017-09-05T13:49:57.534Z,2.83
2017-09-05T13:52:25.874Z,3.47
2017-09-05T13:54:54.941Z,3.13
2017-09-05T13:57:23.264Z,3.50
2017-09-05T13:59:51.569Z,2.43
2017-09-05T14:02:20.173Z,2.20
2017-09-05T14:04:48.504Z,2.93
2017-09-05T14:07:17.662Z,2.87
2017-09-05T14:09:46.249Z,2.63
2017-09-05T14:12:14.640Z,2.90
2017-09-05T14:14:44.880Z,3.23
2017-09-05T14:17:14.330Z,2.70
2017-09-05T14:19:42.638Z,3.37
2017-09-05T14:22:11.830Z,3.20
2017-09-05T14:24:40.126Z,3.13
2017-09-05T14:27:08.418Z,3.03
2017-09-05T14:29:36.803Z,3.37
2017-09-05T14:32:05.990Z,2.80
2017-09-05T14:34:34.686Z,2.50
2017-09-05T14:37:02.989Z,2.80
2017-09-05T14:39:31.343Z,2.90
2017-09-05T14:42:00.011Z,3.07
2017-09-05T14:44:28.324Z,3.10
2017-09-05T14:46:56.645Z,2.80
2017-09-05T14:49:26.037Z,2.70
2017-09-05T14:51:54.348Z,3.00
2017-09-05T14:54:22.974Z,3.23
2017-09-05T14:56:51.305Z,3.10
2017-09-05T14:59:19.589Z,2.77
2017-09-05T15:01:47.877Z,3.20
2017-09-05T15:04:16.585Z,3.27
2017-09-05T15:06:45.320Z,3.60
2017-09-05T15:09:14.225Z,2.93
2017-09-05T15:11:42.512Z,3.30
2017-09-05T15:14:11.799Z,3.23
2017-09-05T15:16:40.180Z,3.70
2017-09-05T15:19:08.748Z,2.60
2017-09-05T15:21:37.135Z,3.77
2017-09-05T15:24:05.445Z,3.40
2017-09-05T15:26:34.115Z,3.30
2017-09-05T15:29:02.409Z,3.50
2017-09-05T15:31:30.702Z,2.73
2017-09-05T15:33:59.587Z,3.07
2017-09-05T15:36:29.059Z,3.17
2017-09-05T15:38:57.672Z,3.43
2017-09-05T15:41:25.968Z,3.20
2017-09-05T15:43:54.230Z,4.00
2017-09-05T15:46:22.921Z,2.97
2017-09-05T15:48:51.190Z,2.87
2017-09-05T15:51:19.459Z,2.70
2017-09-05T15:53:47.759Z,3.80
2017-09-05T15:56:16.154Z,3.00
2017-09-05T15:58:44.841Z,3.90
2017-09-05T16:01:13.493Z,3.03
2017-09-05T16:03:42.680Z,3.70
2017-09-05T16:06:11.329Z,3.20
2017-09-05T16:08:39.607Z,3.37
2017-09-05T16:11:07.881Z,5.07
2017-09-05T16:13:36.174Z,3.13
2017-09-05T16:16:04.459Z,3.50
2017-09-05T16:18:33.165Z,5.13
2017-09-05T16:21:03.051Z,4.10
2017-09-05T16:23:31.902Z,3.90
2017-09-05T16:26:00.191Z,3.83
2017-09-05T16:28:28.518Z,4.47
2017-09-05T16:30:57.120Z,3.57
2017-09-05T16:33:25.747Z,4.70
2017-09-05T16:35:54.030Z,3.80
2017-09-05T16:38:22.355Z,4.47
2017-09-05T16:40:50.859Z,4.77
2017-09-05T16:43:19.420Z,4.60
2017-09-05T16:45:47.714Z,4.53
2017-09-05T16:48:15.996Z,5.00
2017-09-05T16:50:44.587Z,5.60
2017-09-05T16:53:12.877Z,4.30
2017-09-05T16:55:42.187Z,4.07
2017-09-05T16:58:10.844Z,5.17
2017-09-05T17:00:39.138Z,5.50
2017-09-05T17:03:08.780Z,6.33
2017-09-05T17:05:37.339Z,4.57
2017-09-05T17:08:06.080Z,5.27
2017-09-05T17:10:34.749Z,3.97
2017-09-05T17:13:03.177Z,4.70
2017-09-05T17:15:32.114Z,4.47
2017-09-05T17:18:00.690Z,4.70
2017-09-05T17:20:29.641Z,4.10
2017-09-05T17:22:58.772Z,4.93
2017-09-05T17:25:27.069Z,4.20
2017-09-05T17:27:55.472Z,5.10
2017-09-05T17:30:24.148Z,4.70
2017-09-05T17:32:52.503Z,5.47
2017-09-05T17:35:21.498Z,5.17
2017-09-05T17:37:49.920Z,5.73
2017-09-05T17:40:19.057Z,5.10
2017-09-05T17:42:47.687Z,5.57
2017-09-05T17:45:15.999Z,5.53
2017-09-05T17:47:45.354Z,4.60
2017-09-05T17:50:14.018Z,5.10
2017-09-05T17:52:42.309Z,5.00
2017-09-05T17:55:11.197Z,5.63
2017-09-05T17:57:39.961Z,5.03
2017-09-05T18:00:08.963Z,5.53
2017-09-05T18:02:38.258Z,7.03
2017-09-05T18:05:06.949Z,6.13
2017-09-05T18:07:35.359Z,5.53
2017-09-05T18:10:03.756Z,5.80
2017-09-05T18:12:32.430Z,5.83
2017-09-05T18:15:00.735Z,6.90
2017-09-05T18:17:29.384Z,6.53
2017-09-05T18:19:58.501Z,7.20
2017-09-05T18:22:27.573Z,6.80
2017-09-05T18:24:56.690Z,6.90
2017-09-05T18:27:25.042Z,6.93
2017-09-05T18:29:53.647Z,6.30
2017-09-05T18:32:21.935Z,6.70
2017-09-05T18:34:50.249Z,7.10
2017-09-05T18:37:18.614Z,6.20
2017-09-05T18:39:47.413Z,7.20
2017-09-05T18:42:16.097Z,8.13
2017-09-05T18:44:45.101Z,6.40
2017-09-05T18:47:13.792Z,6.60
2017-09-05T18:49:42.443Z,7.23
2017-09-05T18:52:10.852Z,7.20
2017-09-05T18:54:39.137Z,6.97
2017-09-05T18:57:07.815Z,6.93
2017-09-05T18:59:36.106Z,7.63
2017-09-05T19:02:04.387Z,8.10
2017-09-05T19:04:33.103Z,7.27
2017-09-05T19:07:01.408Z,7.60
2017-09-05T19:09:30.472Z,9.13
2017-09-05T19:11:58.792Z,8.30
2017-09-05T19:14:27.087Z,7.83
2017-09-05T19:16:56.252Z,7.73
2017-09-05T19:19:25.939Z,7.60
2017-09-05T19:21:54.663Z,7.23
2017-09-05T19:24:23.615Z,8.10
2017-09-05T19:26:52.198Z,8.37
2017-09-05T19:29:21.000Z,8.30
2017-09-05T19:31:49.291Z,7.57
2017-09-05T19:34:17.958Z,8.00
2017-09-05T19:36:46.580Z,8.00
2017-09-05T19:39:14.869Z,8.30
2017-09-05T19:41:43.222Z,8.10
2017-09-05T19:44:11.732Z,7.83
2017-09-05T19:46:40.976Z,7.80
2017-09-05T19:49:09.392Z,8.47
2017-09-05T19:51:37.647Z,8.60
2017-09-05T19:54:06.006Z,8.30
2017-09-05T19:56:34.432Z,8.57
2017-09-05T19:59:03.021Z,9.40
2017-09-05T20:01:31.571Z,9.50
2017-09-05T20:04:00.804Z,10.10
2017-09-05T20:06:29.187Z,10.20
2017-09-05T20:08:57.497Z,10.03
2017-09-05T20:11:26.156Z,10.13
2017-09-05T20:13:55.056Z,11.50
2017-09-05T20:16:23.345Z,11.13
2017-09-05T20:18:51.924Z,9.77
2017-09-05T20:21:20.791Z,11.20
2017-09-05T20:23:49.086Z,12.00
2017-09-05T20:26:17.864Z,11.80
2017-09-05T20:28:46.161Z,11.27
2017-09-05T20:31:14.985Z,11.30
2017-09-05T20:33:44.098Z,12.80
2017-09-05T20:36:13.242Z,11.63
2017-09-05T20:38:41.545Z,11.93
2017-09-05T20:41:10.144Z,12.03
2017-09-05T20:43:38.445Z,11.60
2017-09-05T20:46:07.138Z,12.50
2017-09-05T20:48:35.722Z,12.67
2017-09-05T20:51:04.312Z,11.40
2017-09-05T20:53:32.608Z,11.93
2017-09-05T20:56:02.004Z,11.90
2017-09-05T20:58:30.330Z,10.90
2017-09-05T21:00:58.636Z,12.60
2017-09-05T21:03:27.378Z,14.10
2017-09-05T21:05:55.672Z,13.00
2017-09-05T21:08:25.147Z,13.60
2017-09-05T21:10:54.078Z,13.90
2017-09-05T21:13:23.403Z,13.47
2017-09-05T21:15:52.601Z,14.50
2017-09-05T21:18:20.895Z,14.37
2017-09-05T21:20:49.216Z,14.73
2017-09-05T21:23:18.429Z,13.97
2017-09-05T21:25:46.835Z,14.23
2017-09-05T21:28:16.203Z,14.93
2017-09-05T21:30:44.916Z,15.27
2017-09-05T21:33:14.033Z,15.23
2017-09-05T21:35:42.928Z,16.47
2017-09-05T21:38:11.205Z,16.70
2017-09-05T21:40:40.571Z,14.57
2017-09-05T21:43:08.888Z,15.30
2017-09-05T21:45:37.370Z,14.60
2017-09-05T21:48:06.826Z,15.50
2017-09-05T21:50:35.232Z,18.07
2017-09-05T21:53:03.749Z,19.03
2017-09-05T21:55:33.840Z,18.57
2017-09-05T21:58:02.957Z,18.77
2017-09-05T22:00:31.252Z,18.90
2017-09-05T22:02:59.882Z,18.50
2017-09-05T22:05:28.768Z,18.90
2017-09-05T22:07:57.073Z,18.70
2017-09-05T22:10:25.691Z,18.57
2017-09-05T22:12:53.993Z,16.10
2017-09-05T22:15:28.286Z,20.07
2017-09-05T22:17:56.589Z,18.57
2017-09-05T22:20:30.999Z,18.30
2017-09-05T22:22:59.290Z,17.10
2017-09-05T22:25:33.534Z,18.50
2017-09-05T22:28:08.568Z,17.93
2017-09-05T22:30:37.574Z,20.60
2017-09-05T22:33:05.862Z,18.57
2017-09-05T22:35:34.188Z,19.27
2017-09-05T22:38:02.785Z,19.07
2017-09-05T22:40:31.159Z,19.50
2017-09-05T22:42:59.427Z,17.97
2017-09-05T22:45:28.053Z,19.30
2017-09-05T22:47:56.358Z,18.50
2017-09-05T22:50:24.685Z,20.27
2017-09-05T22:52:53.072Z,19.90
2017-09-05T22:55:21.791Z,20.47
2017-09-05T22:57:50.952Z,19.20
2017-09-05T23:00:19.296Z,20.17
2017-09-05T23:02:47.587Z,20.57
2017-09-05T23:05:15.928Z,19.20
2017-09-05T23:07:44.284Z,21.97
2017-09-05T23:10:12.991Z,20.70
2017-09-05T23:12:42.068Z,19.63
2017-09-05T23:15:10.351Z,18.27
2017-09-05T23:17:39.455Z,17.77
2017-09-05T23:20:08.302Z,20.13
2017-09-05T23:22:37.475Z,20.83
2017-09-05T23:25:05.791Z,18.63
2017-09-05T23:27:34.854Z,19.30
2017-09-05T23:30:04.268Z,21.03
2017-09-05T23:32:32.552Z,18.97
2017-09-05T23:35:00.848Z,20.00
2017-09-05T23:37:29.601Z,21.93
2017-09-05T23:39:57.932Z,20.77
2017-09-05T23:42:26.560Z,17.73
2017-09-05T23:44:55.527Z,19.50
2017-09-05T23:47:24.223Z,19.23
2017-09-05T23:49:52.539Z,18.83
2017-09-05T23:52:20.831Z,18.83
2017-09-05T23:54:49.417Z,19.50
2017-09-05T23:57:17.717Z,19.40
2017-09-05T23:59:46.017Z,19.00
